createdAt,value
2022-10-25T00:02:50.419Z,12.80
2022-10-25T00:07:52.163Z,12.80
2022-10-25T00:12:53.914Z,12.80
2022-10-25T00:17:55.707Z,12.70
2022-10-25T00:22:57.571Z,12.60
2022-10-25T00:27:59.302Z,12.50
2022-10-25T00:33:00.840Z,12.50
2022-10-25T00:38:02.491Z,12.40
2022-10-25T00:43:04.024Z,12.40
2022-10-25T00:48:05.674Z,12.40
2022-10-25T00:53:07.430Z,12.30
2022-10-25T00:58:09.197Z,12.30
2022-10-25T01:03:10.842Z,12.30
2022-10-25T01:08:12.396Z,12.30
2022-10-25T01:13:13.940Z,12.30
2022-10-25T01:18:15.599Z,12.20
2022-10-25T01:23:17.334Z,12.20
2022-10-25T01:28:19.140Z,12.20
2022-10-25T01:33:20.856Z,12.20
2022-10-25T01:38:22.608Z,12.20
2022-10-25T01:43:24.138Z,12.20
2022-10-25T01:48:25.812Z,12.10
2022-10-25T01:53:27.564Z,12.00
2022-10-25T01:58:29.142Z,11.90
2022-10-25T02:03:30.760Z,11.90
2022-10-25T02:08:32.526Z,11.90
2022-10-25T02:13:34.279Z,11.80
2022-10-25T02:18:36.032Z,11.70
2022-10-25T02:23:37.754Z,11.60
2022-10-25T02:28:39.554Z,11.50
2022-10-25T02:33:41.282Z,11.50
2022-10-25T02:38:43.037Z,11.40
2022-10-25T02:43:44.566Z,11.40
2022-10-25T02:48:46.212Z,11.40
2022-10-25T02:53:47.973Z,11.30
2022-10-25T02:58:49.739Z,11.30
2022-10-25T03:03:51.525Z,11.30
2022-10-25T03:08:53.131Z,11.40
2022-10-25T03:13:54.689Z,11.50
2022-10-25T03:18:56.220Z,11.60
2022-10-25T03:23:57.904Z,11.80
2022-10-25T03:28:59.636Z,11.80
2022-10-25T03:34:01.386Z,11.80
2022-10-25T03:39:03.133Z,11.80
2022-10-25T03:44:04.883Z,11.80
2022-10-25T03:49:06.431Z,11.70
2022-10-25T03:54:08.093Z,11.70
2022-10-25T03:59:09.634Z,11.70
2022-10-25T04:04:11.168Z,11.60
2022-10-25T04:09:12.720Z,11.60
2022-10-25T04:14:14.306Z,11.60
2022-10-25T04:19:15.916Z,11.70
2022-10-25T04:24:17.510Z,11.70
2022-10-25T04:29:19.126Z,11.70
2022-10-25T04:34:20.874Z,11.80
2022-10-25T04:39:22.393Z,11.90
2022-10-25T04:44:24.072Z,11.90
2022-10-25T04:49:25.606Z,12.00
2022-10-25T04:54:27.123Z,12.00
2022-10-25T04:59:28.708Z,12.00
2022-10-25T05:04:30.305Z,12.10
2022-10-25T05:09:31.830Z,12.10
2022-10-25T05:14:33.366Z,12.10
2022-10-25T05:19:35.092Z,12.20
2022-10-25T05:24:36.615Z,12.10
2022-10-25T05:29:38.280Z,12.10
2022-10-25T05:34:39.795Z,12.10
2022-10-25T05:39:41.489Z,12.00
2022-10-25T05:44:43.222Z,12.10
2022-10-25T05:49:44.727Z,12.00
2022-10-25T05:54:46.422Z,12.10
2022-10-25T05:59:48.184Z,12.10
2022-10-25T06:04:52.314Z,12.10
2022-10-25T06:09:54.227Z,12.20
2022-10-25T06:14:55.941Z,12.20
2022-10-25T06:19:57.719Z,12.30
2022-10-25T06:24:59.514Z,12.30
2022-10-25T06:30:01.211Z,12.30
2022-10-25T06:35:02.868Z,12.30
2022-10-25T06:40:04.399Z,12.40
2022-10-25T06:45:05.937Z,12.60
2022-10-25T06:55:09.906Z,13.50
2022-10-25T07:00:11.727Z,13.90
2022-10-25T07:05:13.483Z,14.50
2022-10-25T07:10:15.048Z,15.00
2022-10-25T07:15:16.696Z,15.20
2022-10-25T07:20:18.536Z,15.30
2022-10-25T07:25:20.103Z,15.40
2022-10-25T07:30:21.689Z,15.40
2022-10-25T07:35:23.524Z,15.40
2022-10-25T07:40:25.260Z,15.40
2022-10-25T07:45:28.881Z,15.60
2022-10-25T07:50:32.725Z,15.80
2022-10-25T07:55:34.513Z,16.00
2022-10-25T08:00:36.189Z,16.20
2022-10-25T08:05:37.990Z,16.20
2022-10-25T08:10:39.721Z,16.10
2022-10-25T08:15:41.335Z,15.90
2022-10-25T08:21:01.222Z,16.00
2022-10-25T08:26:03.829Z,16.40
2022-10-25T08:31:05.366Z,16.80
2022-10-25T08:36:06.994Z,17.00
2022-10-25T08:41:08.535Z,17.20
2022-10-25T08:46:10.086Z,17.30
2022-10-25T08:51:11.633Z,17.50
2022-10-25T08:56:16.447Z,17.50
2022-10-25T09:01:18.875Z,17.60
2022-10-25T09:06:20.545Z,17.80
2022-10-25T09:11:22.108Z,18.10
2022-10-25T09:16:23.747Z,18.20
2022-10-25T09:21:25.286Z,18.40
2022-10-25T09:26:26.813Z,18.50
2022-10-25T09:31:28.486Z,18.30
2022-10-25T09:36:30.027Z,18.40
2022-10-25T09:41:31.683Z,18.70
2022-10-25T09:46:33.453Z,18.90
2022-10-25T09:51:35.135Z,19.00
2022-10-25T09:56:36.943Z,18.80
2022-10-25T10:01:38.874Z,18.90
2022-10-25T10:06:40.746Z,18.90
2022-10-25T10:11:42.519Z,18.90
2022-10-25T10:16:44.062Z,18.70
2022-10-25T10:21:45.646Z,18.90
2022-10-25T10:26:47.512Z,18.90
2022-10-25T10:31:49.056Z,18.90
2022-10-25T10:36:50.703Z,19.00
2022-10-25T10:41:52.258Z,19.20
2022-10-25T10:46:53.853Z,19.20
2022-10-25T10:51:55.399Z,19.30
2022-10-25T10:56:56.947Z,19.20
2022-10-25T11:01:58.594Z,19.50
2022-10-25T11:07:00.231Z,19.60
2022-10-25T11:12:02.002Z,19.90
2022-10-25T11:17:03.773Z,20.00
2022-10-25T11:22:05.321Z,20.20
2022-10-25T11:27:06.972Z,20.50
2022-10-25T11:32:08.704Z,20.60
2022-10-25T11:37:10.449Z,20.80
2022-10-25T11:42:11.995Z,20.80
2022-10-25T11:47:13.535Z,20.50
2022-10-25T11:57:21.564Z,20.00
2022-10-25T12:02:23.438Z,20.20
2022-10-25T12:07:25.085Z,20.30
2022-10-25T12:12:26.826Z,20.30
2022-10-25T12:17:28.583Z,20.20
2022-10-25T12:22:30.104Z,20.10
2022-10-25T12:27:31.735Z,19.90
2022-10-25T12:32:33.243Z,19.80
2022-10-25T12:37:34.763Z,20.00
2022-10-25T12:42:36.436Z,20.10
2022-10-25T12:47:38.130Z,20.20
2022-10-25T12:52:39.919Z,20.20
2022-10-25T12:57:46.091Z,20.10
2022-10-25T13:02:50.260Z,20.00
2022-10-25T13:07:52.056Z,19.90
2022-10-25T13:12:53.859Z,19.80
2022-10-25T13:17:55.541Z,19.60
2022-10-25T13:22:57.356Z,19.40
2022-10-25T13:27:59.143Z,19.20
2022-10-25T13:33:00.688Z,19.10
2022-10-25T13:38:02.241Z,19.00
2022-10-25T13:43:03.770Z,18.80
2022-10-25T13:48:05.490Z,18.80
2022-10-25T13:53:07.034Z,18.70
2022-10-25T13:58:08.579Z,18.60
2022-10-25T14:03:10.119Z,18.50
2022-10-25T14:08:11.867Z,18.30
2022-10-25T14:13:13.437Z,18.30
2022-10-25T14:18:15.065Z,18.30
2022-10-25T14:23:16.607Z,18.20
2022-10-25T14:28:18.359Z,18.10
2022-10-25T14:33:20.121Z,18.10
2022-10-25T14:38:21.758Z,18.00
2022-10-25T14:43:23.316Z,17.90
2022-10-25T14:48:24.888Z,17.90
2022-10-25T14:53:26.520Z,17.90
2022-10-25T14:58:28.063Z,18.00
2022-10-25T15:03:29.655Z,17.90
2022-10-25T15:08:31.257Z,17.90
2022-10-25T15:13:33.017Z,17.80
2022-10-25T15:18:34.540Z,17.60
2022-10-25T15:23:36.082Z,17.40
2022-10-25T15:28:37.633Z,17.20
2022-10-25T15:33:39.401Z,17.00
2022-10-25T15:39:06.266Z,16.80
2022-10-25T15:44:02.579Z,16.60
2022-10-25T15:49:04.120Z,16.40
2022-10-25T15:54:05.835Z,16.30
2022-10-25T15:59:07.649Z,16.20
2022-10-25T16:04:09.270Z,16.10
2022-10-25T16:09:10.814Z,16.00
2022-10-25T16:14:12.547Z,15.80
2022-10-25T16:19:14.088Z,15.70
2022-10-25T16:24:15.716Z,15.50
2022-10-25T16:29:17.221Z,15.40
2022-10-25T16:34:18.826Z,15.20
2022-10-25T16:39:20.366Z,15.10
2022-10-25T16:44:22.123Z,15.00
2022-10-25T16:49:23.874Z,15.00
2022-10-25T16:54:25.398Z,14.80
2022-10-25T16:59:27.075Z,14.80
2022-10-25T17:04:28.874Z,14.70
2022-10-25T17:09:30.599Z,14.70
2022-10-25T17:14:32.117Z,14.70
2022-10-25T17:19:33.791Z,14.60
2022-10-25T17:24:35.317Z,14.60
2022-10-25T17:29:36.874Z,14.50
2022-10-25T17:34:38.441Z,14.50
2022-10-25T17:39:40.164Z,14.50
2022-10-25T17:44:41.711Z,14.40
2022-10-25T17:49:43.365Z,14.40
2022-10-25T17:54:45.123Z,14.30
2022-10-25T17:59:46.893Z,14.20
2022-10-25T18:05:02.240Z,14.10
2022-10-25T18:10:10.461Z,14.00
2022-10-25T18:15:11.978Z,13.90
2022-10-25T18:20:13.659Z,13.80
2022-10-25T18:25:15.282Z,13.70
2022-10-25T18:30:16.857Z,13.50
2022-10-25T18:35:18.599Z,13.40
2022-10-25T18:40:20.124Z,13.30
2022-10-25T18:45:21.748Z,13.20
2022-10-25T18:50:24.594Z,13.00
2022-10-25T18:55:26.164Z,12.90
2022-10-25T19:00:27.763Z,12.80
2022-10-25T19:05:29.556Z,12.70
2022-10-25T19:10:31.187Z,12.60
2022-10-25T19:15:32.988Z,12.50
2022-10-25T19:20:34.776Z,12.40
2022-10-25T19:25:36.400Z,12.30
2022-10-25T19:30:37.989Z,12.20
2022-10-25T19:35:39.691Z,12.10
2022-10-25T19:40:41.278Z,12.00
2022-10-25T19:45:42.871Z,11.90
2022-10-25T19:50:44.610Z,11.80
2022-10-25T19:55:46.335Z,11.70
2022-10-25T20:00:47.879Z,11.60
2022-10-25T20:05:49.565Z,11.60
2022-10-25T20:10:51.145Z,11.50
2022-10-25T20:15:52.760Z,11.40
2022-10-25T20:20:54.477Z,11.30
2022-10-25T20:25:56.004Z,11.20
2022-10-25T20:30:57.683Z,11.20
2022-10-25T20:35:59.217Z,11.10
2022-10-25T20:41:00.887Z,11.10
2022-10-25T20:46:02.685Z,11.00
2022-10-25T20:51:07.636Z,10.90
2022-10-25T20:56:09.907Z,10.80
2022-10-25T21:01:11.529Z,10.70
2022-10-25T21:06:13.158Z,10.60
2022-10-25T21:11:14.731Z,10.50
2022-10-25T21:16:16.294Z,10.40
2022-10-25T21:21:17.915Z,10.40
2022-10-25T21:26:19.588Z,10.30
2022-10-25T21:31:21.131Z,10.30
2022-10-25T21:36:22.800Z,10.20
2022-10-25T21:41:24.369Z,10.10
2022-10-25T21:46:26.005Z,10.10
2022-10-25T21:51:27.723Z,10.00
2022-10-25T21:56:30.024Z,10.00
2022-10-25T22:01:33.194Z,9.90
2022-10-25T22:06:34.876Z,9.80
2022-10-25T22:11:36.425Z,9.80
2022-10-25T22:16:38.079Z,9.80
2022-10-25T22:21:39.643Z,9.70
2022-10-25T22:26:41.280Z,9.70
2022-10-25T22:31:43.015Z,9.70
2022-10-25T22:36:44.786Z,9.60
2022-10-25T22:41:46.526Z,9.60
2022-10-25T22:46:48.291Z,9.60
2022-10-25T22:51:50.067Z,9.50
2022-10-25T22:56:51.788Z,9.40
2022-10-25T23:01:53.570Z,9.30
2022-10-25T23:06:55.300Z,9.10
2022-10-25T23:11:56.866Z,9.00
2022-10-25T23:16:58.517Z,9.00
2022-10-25T23:22:00.149Z,9.00
2022-10-25T23:27:01.727Z,8.90
2022-10-25T23:32:03.296Z,8.80
2022-10-25T23:37:04.899Z,8.70
2022-10-25T23:42:06.640Z,8.80
2022-10-25T23:47:08.279Z,8.90
2022-10-25T23:52:09.858Z,8.80
2022-10-25T23:57:11.603Z,8.60
